Rumney, New Hampshire
Current Conditions -  °F | °C
As of 7:55 AM on Friday 24 Oct 2014 (Local Time) from K1P1 Reporting Station
Overcast Overcast  
Wind Chill:   Ceiling: 3400
Heat Index:   Visibility: 10mi
Dew Point:   Wind: 6mph
Humidity: 99%   Direction: 280°W
Pressure: 29.73"   Gusts: NA
Location:  43.81°N, 71.81°W
Report Text: K1P1 241155Z AUTO 28005KT 10SM BKN034 OVC041 08/08 A2973 RMK AO2 60002 70083 T00770076 10088 20077
Loading
Personal Weather Stations






























Interactive Weather Map New forecast layout! Learn more

10-Day Weather Forecast

Advertisements
Track Severe Weather on mobile